createdAt,value
2022-08-21T00:00:12.905Z,3.92
2022-08-21T00:02:47.662Z,4.97
2022-08-21T00:05:15.384Z,4.72
2022-08-21T00:07:43.470Z,5.10
2022-08-21T00:10:12.672Z,4.43
2022-08-21T00:12:42.550Z,4.15
2022-08-21T00:15:12.782Z,4.63
2022-08-21T00:17:43.182Z,4.35
2022-08-21T00:20:13.558Z,4.13
2022-08-21T00:22:41.936Z,4.00
2022-08-21T00:25:11.728Z,3.88
2022-08-21T00:27:42.884Z,4.80
2022-08-21T00:30:22.744Z,4.82
2022-08-21T00:32:51.356Z,4.70
2022-08-21T00:35:22.230Z,5.03
2022-08-21T00:37:50.537Z,4.65
2022-08-21T00:40:22.918Z,4.85
2022-08-21T00:42:53.721Z,4.95
2022-08-21T00:45:22.117Z,4.88
2022-08-21T00:47:50.747Z,4.68
2022-08-21T00:50:22.086Z,5.50
2022-08-21T00:52:51.702Z,5.57
2022-08-21T00:55:20.259Z,4.38
2022-08-21T00:57:54.080Z,5.07
2022-08-21T01:00:25.403Z,4.70
2022-08-21T01:02:53.517Z,5.25
2022-08-21T01:05:21.414Z,4.43
2022-08-21T01:07:49.253Z,4.95
2022-08-21T01:10:23.934Z,4.90
2022-08-21T01:12:55.969Z,4.78
2022-08-21T01:15:26.726Z,4.78
2022-08-21T01:17:55.414Z,4.72
2022-08-21T01:20:23.182Z,4.72
2022-08-21T01:23:02.036Z,5.18
2022-08-21T01:25:29.974Z,4.25
2022-08-21T01:27:59.723Z,3.83
2022-08-21T01:30:30.433Z,4.05
2022-08-21T01:32:58.872Z,3.80
2022-08-21T01:35:26.866Z,4.50
2022-08-21T01:37:54.629Z,4.22
2022-08-21T01:40:24.034Z,3.85
2022-08-21T01:42:52.098Z,3.60
2022-08-21T01:45:20.182Z,3.95
2022-08-21T01:47:48.065Z,4.07
2022-08-21T01:50:19.071Z,4.13
2022-08-21T01:52:48.197Z,3.92
2022-08-21T01:55:16.978Z,4.38
2022-08-21T01:57:46.494Z,4.13
2022-08-21T02:00:17.334Z,3.90
2022-08-21T02:02:45.018Z,4.45
2022-08-21T02:05:14.523Z,3.40
2022-08-21T02:07:45.247Z,4.22
2022-08-21T02:10:15.745Z,4.22
2022-08-21T02:12:43.436Z,4.13
2022-08-21T02:15:12.780Z,3.67
2022-08-21T02:17:42.569Z,3.85
2022-08-21T02:20:11.925Z,4.00
2022-08-21T02:22:39.721Z,3.30
2022-08-21T02:25:08.679Z,4.07
2022-08-21T02:27:41.712Z,3.80
2022-08-21T02:30:13.558Z,3.75
2022-08-21T02:32:41.907Z,4.00
2022-08-21T02:35:11.351Z,3.55
2022-08-21T02:37:45.904Z,3.20
2022-08-21T02:40:15.263Z,3.15
2022-08-21T02:42:44.703Z,3.50
2022-08-21T02:45:16.108Z,3.08
2022-08-21T02:47:49.432Z,3.13
2022-08-21T02:50:21.592Z,3.10
2022-08-21T02:52:51.826Z,2.88
2022-08-21T02:55:23.473Z,2.85
2022-08-21T02:57:51.341Z,2.58
2022-08-21T03:00:22.423Z,3.38
2022-08-21T03:02:50.440Z,2.83
2022-08-21T03:05:19.057Z,3.03
2022-08-21T03:07:48.106Z,2.70
2022-08-21T03:10:16.736Z,2.83
2022-08-21T03:12:44.676Z,2.97
2022-08-21T03:15:15.088Z,3.15
2022-08-21T03:17:44.222Z,2.85
2022-08-21T03:20:12.686Z,2.72
2022-08-21T03:22:40.381Z,2.83
2022-08-21T03:25:09.201Z,3.00
2022-08-21T03:27:40.719Z,2.70
2022-08-21T03:30:12.349Z,3.60
2022-08-21T03:32:40.090Z,3.45
2022-08-21T03:35:10.323Z,3.05
2022-08-21T03:37:38.227Z,3.00
2022-08-21T03:40:09.080Z,2.92
2022-08-21T03:42:37.056Z,2.70
2022-08-21T03:45:05.342Z,2.60
2022-08-21T03:47:33.318Z,2.92
2022-08-21T03:50:01.347Z,2.92
2022-08-21T03:52:30.412Z,3.17
2022-08-21T03:54:58.173Z,2.80
2022-08-21T03:57:25.940Z,3.30
2022-08-21T03:59:53.639Z,2.95
2022-08-21T04:02:23.110Z,2.90
2022-08-21T04:04:50.914Z,2.97
2022-08-21T04:07:18.668Z,2.70
2022-08-21T04:09:47.707Z,2.90
2022-08-21T04:12:15.478Z,2.80
2022-08-21T04:14:43.755Z,3.28
2022-08-21T04:17:11.539Z,2.90
2022-08-21T04:19:39.227Z,2.85
2022-08-21T04:22:06.962Z,2.78
2022-08-21T04:24:35.035Z,3.05
2022-08-21T04:27:04.146Z,3.50
2022-08-21T04:29:31.870Z,3.25
2022-08-21T04:31:59.604Z,3.13
2022-08-21T04:34:27.407Z,3.50
2022-08-21T04:36:55.126Z,3.53
2022-08-21T04:39:22.857Z,3.72
2022-08-21T04:41:57.597Z,3.55
2022-08-21T04:44:27.103Z,3.20
2022-08-21T04:46:54.863Z,3.17
2022-08-21T04:49:22.571Z,3.60
2022-08-21T04:51:50.364Z,3.80
2022-08-21T04:54:22.312Z,3.70
2022-08-21T04:56:54.622Z,3.47
2022-08-21T04:59:28.801Z,3.60
2022-08-21T05:01:57.658Z,3.75
2022-08-21T05:04:31.120Z,4.10
2022-08-21T05:07:01.173Z,3.70
2022-08-21T05:09:30.480Z,4.25
2022-08-21T05:11:59.345Z,3.63
2022-08-21T05:14:28.545Z,3.50
2022-08-21T05:16:56.240Z,3.55
2022-08-21T05:19:24.390Z,3.33
2022-08-21T05:21:52.782Z,3.88
2022-08-21T05:24:20.570Z,3.17
2022-08-21T05:26:48.271Z,3.22
2022-08-21T05:29:18.853Z,3.00
2022-08-21T05:31:49.002Z,3.55
2022-08-21T05:34:19.980Z,3.30
2022-08-21T05:36:47.768Z,2.95
2022-08-21T05:39:16.241Z,3.10
2022-08-21T05:41:43.987Z,3.15
2022-08-21T05:44:11.671Z,2.92
2022-08-21T05:46:40.484Z,2.70
2022-08-21T05:49:09.999Z,2.30
2022-08-21T05:51:37.912Z,2.85
2022-08-21T05:54:05.722Z,2.20
2022-08-21T05:56:34.065Z,2.22
2022-08-21T05:59:01.901Z,3.42
2022-08-21T06:01:29.792Z,1.85
2022-08-21T06:03:59.562Z,2.50
2022-08-21T06:06:31.123Z,2.25
2022-08-21T06:08:58.869Z,2.28
2022-08-21T06:11:28.964Z,2.25
2022-08-21T06:13:56.968Z,1.90
2022-08-21T06:16:24.868Z,2.10
2022-08-21T06:18:52.702Z,1.90
2022-08-21T06:21:20.499Z,1.80
2022-08-21T06:23:49.550Z,1.98
2022-08-21T06:26:17.331Z,1.48
2022-08-21T06:28:45.505Z,2.15
2022-08-21T06:31:16.175Z,2.50
2022-08-21T06:33:44.459Z,2.15
2022-08-21T06:36:12.282Z,2.35
2022-08-21T06:38:40.903Z,3.80
2022-08-21T06:41:10.442Z,2.20
2022-08-21T06:43:39.900Z,2.30
2022-08-21T06:46:08.665Z,2.33
2022-08-21T06:48:36.763Z,2.38
2022-08-21T06:51:05.164Z,2.78
2022-08-21T06:53:32.871Z,2.10
2022-08-21T06:56:00.688Z,2.15
2022-08-21T06:58:29.918Z,2.42
2022-08-21T07:01:00.761Z,2.38
2022-08-21T07:03:31.478Z,2.45
2022-08-21T07:05:59.638Z,1.98
2022-08-21T07:08:27.893Z,2.30
2022-08-21T07:10:57.548Z,1.80
2022-08-21T07:13:25.225Z,1.90
2022-08-21T07:15:54.221Z,2.70
2022-08-21T07:18:22.259Z,2.00
2022-08-21T07:20:50.228Z,2.85
2022-08-21T07:23:23.079Z,2.25
2022-08-21T07:25:50.864Z,2.20
2022-08-21T07:28:18.515Z,2.00
2022-08-21T07:30:46.431Z,1.90
2022-08-21T07:33:15.404Z,2.15
2022-08-21T07:35:43.249Z,1.75
2022-08-21T07:38:11.037Z,2.10
2022-08-21T07:40:39.791Z,1.92
2022-08-21T07:43:08.003Z,2.40
2022-08-21T07:45:36.161Z,1.98
2022-08-21T07:48:04.324Z,2.05
2022-08-21T07:50:33.527Z,2.20
2022-08-21T07:53:01.288Z,2.17
2022-08-21T07:55:29.102Z,1.75
2022-08-21T07:57:56.893Z,2.08
2022-08-21T08:00:27.033Z,2.40
2022-08-21T08:02:55.539Z,2.22
2022-08-21T08:05:26.125Z,2.00
2022-08-21T08:07:55.298Z,2.35
2022-08-21T08:10:23.827Z,2.00
2022-08-21T08:12:53.291Z,1.98
2022-08-21T08:15:24.350Z,2.33
2022-08-21T08:17:52.065Z,2.20
2022-08-21T08:20:20.947Z,2.28
2022-08-21T08:22:50.180Z,2.20
2022-08-21T08:25:21.121Z,2.10
2022-08-21T08:27:49.240Z,2.22
2022-08-21T08:30:19.359Z,4.85
2022-08-21T08:32:48.170Z,1.95
2022-08-21T08:35:16.319Z,2.00
2022-08-21T08:37:46.732Z,2.10
2022-08-21T08:40:27.367Z,2.00
2022-08-21T08:42:55.354Z,6.57
2022-08-21T08:45:25.246Z,4.30
2022-08-21T08:47:58.790Z,1.92
2022-08-21T08:50:30.336Z,2.50
2022-08-21T08:53:02.021Z,3.25
2022-08-21T08:55:37.138Z,2.75
2022-08-21T08:58:05.688Z,2.40
2022-08-21T09:00:34.438Z,2.80
2022-08-21T09:03:04.042Z,1.92
2022-08-21T09:05:42.016Z,2.05
2022-08-21T09:08:44.381Z,2.28
2022-08-21T09:11:23.075Z,2.15
2022-08-21T09:13:57.835Z,2.58
2022-08-21T09:16:32.763Z,2.17
2022-08-21T09:19:09.251Z,2.30
2022-08-21T09:21:45.114Z,2.20
2022-08-21T09:24:26.869Z,3.33
2022-08-21T09:27:07.090Z,2.47
2022-08-21T09:29:38.141Z,3.85
2022-08-21T09:32:18.028Z,3.17
2022-08-21T09:34:58.503Z,1.98
2022-08-21T09:37:27.314Z,2.70
2022-08-21T09:39:55.165Z,3.15
2022-08-21T09:42:27.158Z,2.10
2022-08-21T09:45:12.216Z,3.63
2022-08-21T09:47:40.093Z,3.10
2022-08-21T09:50:14.294Z,2.10
2022-08-21T09:52:47.897Z,2.83
2022-08-21T09:55:34.803Z,3.55
2022-08-21T09:58:04.104Z,2.60
2022-08-21T10:00:35.072Z,2.25
2022-08-21T10:03:15.479Z,3.22
2022-08-21T10:05:54.448Z,2.90
2022-08-21T10:08:24.268Z,2.80
2022-08-21T10:10:56.449Z,2.80
2022-08-21T10:13:37.527Z,2.60
2022-08-21T10:16:18.241Z,2.70
2022-08-21T10:18:57.203Z,3.47
2022-08-21T10:21:30.672Z,2.60
2022-08-21T10:24:11.118Z,2.72
2022-08-21T10:26:51.181Z,2.10
2022-08-21T10:29:34.624Z,2.10
2022-08-21T10:32:11.726Z,2.05
2022-08-21T10:35:01.863Z,2.50
2022-08-21T10:37:41.466Z,2.58
2022-08-21T10:40:17.561Z,2.40
2022-08-21T10:42:58.794Z,1.90
2022-08-21T10:45:38.591Z,2.00
2022-08-21T10:48:08.942Z,2.05
2022-08-21T10:50:46.330Z,2.03
2022-08-21T10:53:29.255Z,2.00
2022-08-21T10:56:01.095Z,2.10
2022-08-21T10:58:32.378Z,1.42
2022-08-21T11:01:09.805Z,1.70
2022-08-21T11:03:43.541Z,1.95
2022-08-21T11:06:15.819Z,1.70
2022-08-21T11:08:47.020Z,2.08
2022-08-21T11:11:22.147Z,2.22
2022-08-21T11:13:55.710Z,1.73
2022-08-21T11:16:31.552Z,1.90
2022-08-21T11:19:04.766Z,2.00
2022-08-21T11:21:40.063Z,1.60
2022-08-21T11:24:21.759Z,1.65
2022-08-21T11:26:56.008Z,1.80
2022-08-21T11:29:28.939Z,1.98
2022-08-21T11:32:23.715Z,1.70
2022-08-21T11:35:00.301Z,1.40
2022-08-21T11:37:48.599Z,1.65
2022-08-21T11:40:26.437Z,1.92
2022-08-21T11:43:05.627Z,1.23
2022-08-21T11:45:39.955Z,1.80
2022-08-21T11:48:16.075Z,1.55
2022-08-21T11:50:46.708Z,2.15
2022-08-21T11:53:18.703Z,2.17
2022-08-21T11:55:51.140Z,1.50
2022-08-21T11:58:24.070Z,1.42
2022-08-21T12:00:56.010Z,1.60
2022-08-21T12:03:28.994Z,3.25
2022-08-21T12:06:00.488Z,4.38
2022-08-21T12:08:31.179Z,2.67
2022-08-21T12:11:06.316Z,1.65
2022-08-21T12:13:40.371Z,1.75
2022-08-21T12:16:14.679Z,1.65
2022-08-21T12:18:45.094Z,1.77
2022-08-21T12:21:23.170Z,5.88
2022-08-21T12:24:03.486Z,2.05
2022-08-21T12:26:33.968Z,11.30
2022-08-21T12:29:18.765Z,1.98
2022-08-21T12:31:54.781Z,3.03
2022-08-21T12:34:26.749Z,1.80
2022-08-21T12:36:58.949Z,1.42
2022-08-21T12:39:32.033Z,1.77
2022-08-21T12:42:02.979Z,3.80
2022-08-21T12:44:39.642Z,1.85
2022-08-21T12:47:15.187Z,1.65
2022-08-21T12:49:52.999Z,1.38
2022-08-21T12:52:23.723Z,1.45
2022-08-21T12:54:51.820Z,1.38
2022-08-21T12:57:22.743Z,1.65
2022-08-21T12:59:55.819Z,1.27
2022-08-21T13:02:27.065Z,1.52
2022-08-21T13:04:57.670Z,1.50
2022-08-21T13:07:30.178Z,1.25
2022-08-21T13:10:02.687Z,1.20
2022-08-21T13:12:32.448Z,1.40
2022-08-21T13:15:03.325Z,1.42
2022-08-21T13:17:36.334Z,1.10
2022-08-21T13:20:11.559Z,1.38
2022-08-21T13:22:44.665Z,1.20
2022-08-21T13:25:14.344Z,1.02
2022-08-21T13:27:43.893Z,1.00
2022-08-21T13:30:15.374Z,1.13
2022-08-21T13:32:46.237Z,1.17
2022-08-21T13:35:18.822Z,1.23
2022-08-21T13:37:49.441Z,1.40
2022-08-21T13:40:22.359Z,1.42
2022-08-21T13:42:50.730Z,1.35
2022-08-21T13:45:25.414Z,1.02
2022-08-21T13:47:54.444Z,1.10
2022-08-21T13:50:27.677Z,1.05
2022-08-21T13:53:02.206Z,1.00
2022-08-21T13:55:39.697Z,1.20
2022-08-21T13:58:08.489Z,1.50
2022-08-21T14:00:40.028Z,1.10
2022-08-21T14:03:10.736Z,1.20
2022-08-21T14:05:46.601Z,1.30
2022-08-21T14:08:17.873Z,1.15
2022-08-21T14:10:53.868Z,2.00
2022-08-21T14:13:38.739Z,1.08
2022-08-21T14:16:15.769Z,1.45
2022-08-21T14:18:49.041Z,1.60
2022-08-21T14:21:29.471Z,1.35
2022-08-21T14:24:12.335Z,1.30
2022-08-21T14:26:47.718Z,1.10
2022-08-21T14:29:17.699Z,1.40
2022-08-21T14:31:51.585Z,1.63
2022-08-21T14:34:20.105Z,2.15
2022-08-21T14:36:50.246Z,1.00
2022-08-21T14:39:18.801Z,1.20
2022-08-21T14:41:49.549Z,2.00
2022-08-21T14:44:20.779Z,1.33
2022-08-21T14:46:56.082Z,1.65
2022-08-21T14:49:27.462Z,1.40
2022-08-21T14:51:58.558Z,1.50
2022-08-21T14:54:31.771Z,1.00
2022-08-21T14:57:02.600Z,1.20
2022-08-21T14:59:31.417Z,1.35
2022-08-21T15:01:59.231Z,1.40
2022-08-21T15:04:27.446Z,1.20
2022-08-21T15:06:55.273Z,1.38
2022-08-21T15:09:24.816Z,1.20
2022-08-21T15:11:53.572Z,1.17
2022-08-21T15:14:26.499Z,1.60
2022-08-21T15:16:54.823Z,1.38
2022-08-21T15:19:22.824Z,1.25
2022-08-21T15:21:50.834Z,1.30
2022-08-21T15:24:18.767Z,1.40
2022-08-21T15:26:48.676Z,1.30
2022-08-21T15:29:22.521Z,1.48
2022-08-21T15:31:58.004Z,1.63
2022-08-21T15:34:28.215Z,1.02
2022-08-21T15:36:57.003Z,1.20
2022-08-21T15:39:31.614Z,1.15
2022-08-21T15:42:11.074Z,1.45
2022-08-21T15:44:41.731Z,1.13
2022-08-21T15:47:14.257Z,1.40
2022-08-21T15:49:43.821Z,0.98
2022-08-21T15:52:11.688Z,0.98
2022-08-21T15:54:39.631Z,1.13
2022-08-21T15:57:10.982Z,1.27
2022-08-21T15:59:43.635Z,1.10
2022-08-21T16:02:15.818Z,1.15
2022-08-21T16:04:44.133Z,0.95
2022-08-21T16:07:12.403Z,1.05
2022-08-21T16:09:40.684Z,1.17
2022-08-21T16:12:13.218Z,1.40
2022-08-21T16:14:41.176Z,1.55
2022-08-21T16:17:10.188Z,1.15
2022-08-21T16:19:38.615Z,1.67
2022-08-21T16:22:07.064Z,2.17
2022-08-21T16:24:36.722Z,1.60
2022-08-21T16:27:08.330Z,2.33
2022-08-21T16:29:39.503Z,2.05
2022-08-21T16:32:08.920Z,2.15
2022-08-21T16:34:37.631Z,1.23
2022-08-21T16:37:08.239Z,1.40
2022-08-21T16:39:36.976Z,1.73
2022-08-21T16:42:06.322Z,1.20
2022-08-21T16:44:35.532Z,1.30
2022-08-21T16:47:08.100Z,1.20
2022-08-21T16:49:36.890Z,1.27
2022-08-21T16:52:05.984Z,1.15
2022-08-21T16:54:35.676Z,1.00
2022-08-21T16:57:03.612Z,1.42
2022-08-21T16:59:31.583Z,1.23
2022-08-21T17:01:59.694Z,1.20
2022-08-21T17:04:30.361Z,1.25
2022-08-21T17:06:58.199Z,1.42
2022-08-21T17:09:26.017Z,1.08
2022-08-21T17:11:53.792Z,1.60
2022-08-21T17:14:24.543Z,1.55
2022-08-21T17:16:55.192Z,1.10
2022-08-21T17:19:23.685Z,1.30
2022-08-21T17:21:52.809Z,1.02
2022-08-21T17:24:21.113Z,1.42
2022-08-21T17:26:49.868Z,1.23
2022-08-21T17:29:19.781Z,1.20
2022-08-21T17:31:47.630Z,1.40
2022-08-21T17:34:15.719Z,1.45
2022-08-21T17:36:43.629Z,1.17
2022-08-21T17:39:14.876Z,1.50
2022-08-21T17:41:50.122Z,1.33
2022-08-21T17:44:25.601Z,1.60
2022-08-21T17:46:53.615Z,1.40
2022-08-21T17:49:21.446Z,1.30
2022-08-21T17:51:49.195Z,1.73
2022-08-21T17:54:18.339Z,1.40
2022-08-21T17:56:46.322Z,1.30
2022-08-21T17:59:15.364Z,1.30
2022-08-21T18:01:45.111Z,1.60
2022-08-21T18:04:13.309Z,1.50
2022-08-21T18:06:42.364Z,1.40
2022-08-21T18:09:11.243Z,1.70
2022-08-21T18:11:42.990Z,1.80
2022-08-21T18:14:12.097Z,2.17
2022-08-21T18:16:40.380Z,1.90
2022-08-21T18:19:11.895Z,1.25
2022-08-21T18:21:39.591Z,1.90
2022-08-21T18:24:07.602Z,1.95
2022-08-21T18:26:38.829Z,2.35
2022-08-21T18:29:11.394Z,2.10
2022-08-21T18:31:43.566Z,2.30
2022-08-21T18:34:20.405Z,1.45
2022-08-21T18:36:48.409Z,2.10
2022-08-21T18:39:35.559Z,1.58
2022-08-21T18:42:09.182Z,2.00
2022-08-21T18:44:38.927Z,2.10
2022-08-21T18:47:11.736Z,1.85
2022-08-21T18:49:40.270Z,1.95
2022-08-21T18:52:10.003Z,2.50
2022-08-21T18:54:45.801Z,2.33
2022-08-21T18:57:18.781Z,2.33
2022-08-21T18:59:50.098Z,2.47
2022-08-21T19:02:17.937Z,2.42
2022-08-21T19:04:46.973Z,2.08
2022-08-21T19:07:19.671Z,2.22
2022-08-21T19:10:07.613Z,2.28
2022-08-21T19:12:36.248Z,2.33
2022-08-21T19:15:08.215Z,2.50
2022-08-21T19:17:36.421Z,2.67
2022-08-21T19:20:16.792Z,2.53
2022-08-21T19:22:59.667Z,2.70
2022-08-21T19:25:33.546Z,2.58
2022-08-21T19:28:03.241Z,2.10
2022-08-21T19:30:32.445Z,2.65
2022-08-21T19:33:00.993Z,2.40
2022-08-21T19:35:29.506Z,2.33
2022-08-21T19:37:57.327Z,2.30
2022-08-21T19:40:25.246Z,3.00
2022-08-21T19:42:53.397Z,2.90
2022-08-21T19:45:21.838Z,2.70
2022-08-21T19:47:55.694Z,2.55
2022-08-21T19:50:27.229Z,2.67
2022-08-21T19:52:54.917Z,2.10
2022-08-21T19:55:23.432Z,2.05
2022-08-21T19:57:51.493Z,2.50
2022-08-21T20:00:19.150Z,2.85
2022-08-21T20:02:48.099Z,2.60
2022-08-21T20:05:36.086Z,3.03
2022-08-21T20:08:11.776Z,2.83
2022-08-21T20:10:49.776Z,2.60
2022-08-21T20:13:21.426Z,2.08
2022-08-21T20:15:50.602Z,2.45
2022-08-21T20:18:19.458Z,2.55
2022-08-21T20:20:56.230Z,3.05
2022-08-21T20:23:30.374Z,2.50
2022-08-21T20:25:58.579Z,2.85
2022-08-21T20:28:26.997Z,2.95
2022-08-21T20:30:57.120Z,2.35
2022-08-21T20:33:25.992Z,2.20
2022-08-21T20:35:55.860Z,2.03
2022-08-21T20:38:24.438Z,3.10
2022-08-21T20:40:54.817Z,2.13
2022-08-21T20:43:23.735Z,2.40
2022-08-21T20:45:51.999Z,2.58
2022-08-21T20:48:25.742Z,3.50
2022-08-21T20:51:09.461Z,2.80
2022-08-21T20:53:46.338Z,2.40
2022-08-21T20:56:21.292Z,2.65
2022-08-21T20:58:58.553Z,2.78
2022-08-21T21:01:32.474Z,1.92
2022-08-21T21:04:10.057Z,3.03
2022-08-21T21:09:41.824Z,2.42
2022-08-21T21:12:17.357Z,2.50
2022-08-21T21:14:47.547Z,3.38
2022-08-21T21:17:26.807Z,3.03
2022-08-21T21:19:59.717Z,2.72
2022-08-21T21:22:33.730Z,2.10
2022-08-21T21:25:07.359Z,2.28
2022-08-21T21:27:38.588Z,2.50
2022-08-21T21:30:12.468Z,2.63
2022-08-21T21:32:42.491Z,2.53
2022-08-21T21:35:14.470Z,2.80
2022-08-21T21:37:50.512Z,2.10
2022-08-21T21:40:35.987Z,3.05
2022-08-21T21:43:12.460Z,2.10
2022-08-21T21:45:51.531Z,2.25
2022-08-21T21:48:27.695Z,2.20
2022-08-21T21:51:00.872Z,2.53
2022-08-21T21:56:41.913Z,2.47
2022-08-21T21:59:40.053Z,2.30
2022-08-21T22:02:14.549Z,2.03
2022-08-21T22:04:56.079Z,2.80
2022-08-21T22:07:32.077Z,3.00
2022-08-21T22:10:19.590Z,2.72
2022-08-21T22:12:56.769Z,2.40
2022-08-21T22:15:37.585Z,2.58
2022-08-21T22:18:10.030Z,2.10
2022-08-21T22:20:40.953Z,2.22
2022-08-21T22:23:19.241Z,2.40
2022-08-21T22:25:52.687Z,2.38
2022-08-21T22:28:25.698Z,2.40
2022-08-21T22:30:56.856Z,2.15
2022-08-21T22:33:27.829Z,2.38
2022-08-21T22:35:58.803Z,2.60
2022-08-21T22:38:33.299Z,2.40
2022-08-21T22:44:05.513Z,2.20
2022-08-21T22:46:36.468Z,2.38
2022-08-21T22:49:08.309Z,1.98
2022-08-21T22:51:42.108Z,2.63
2022-08-21T22:54:21.714Z,2.30
2022-08-21T22:57:04.235Z,2.58
2022-08-21T22:59:37.010Z,2.58
2022-08-21T23:02:19.284Z,2.40
2022-08-21T23:04:51.660Z,2.50
2022-08-21T23:07:43.421Z,2.40
2022-08-21T23:10:22.065Z,2.38
2022-08-21T23:13:01.860Z,2.65
2022-08-21T23:15:37.062Z,3.08
2022-08-21T23:18:13.546Z,2.83
2022-08-21T23:20:56.137Z,2.38
2022-08-21T23:23:27.000Z,2.65
2022-08-21T23:26:10.719Z,2.47
2022-08-21T23:29:08.827Z,3.63
2022-08-21T23:31:43.216Z,2.83
2022-08-21T23:34:21.562Z,2.90
2022-08-21T23:37:48.307Z,2.60
2022-08-21T23:40:32.214Z,2.47
2022-08-21T23:43:11.346Z,2.53
2022-08-21T23:45:55.946Z,2.47
2022-08-21T23:48:34.287Z,2.95
2022-08-21T23:51:09.394Z,2.92
2022-08-21T23:53:50.331Z,2.90
2022-08-21T23:56:30.131Z,2.70
2022-08-21T23:59:09.874Z,2.45
